Time;durP1;ratioP1;P1;durP2;ratioP2;P2;SDS_P1;SDS_P2;PMS_P1;PMS_P2;Temp;Humidity;BMP_temperature;BMP_pressure;BME280_temperature;BME280_humidity;BME280_pressure;Samples;Min_cycle;Max_cycle;Signal;HPM_P1;HPM_P2
2022/07/09 00:00:06;;;;;;;;;;;;;;;14.88;64.07;101343.51;1765310;80;21985;-72
2022/07/09 00:02:34;;;;;;;;;;;;;;;14.88;64.19;101344.04;1770616;81;20180;-72
2022/07/09 00:05:00;;;;;;;;;;;;;;;14.91;64.34;101340.50;1766786;80;20172;-72
2022/07/09 00:07:26;;;;;;;;;;;;;;;14.96;64.47;101337.27;1760991;81;20148;-72
2022/07/09 00:09:52;;;;;;;;;;;;;;;15.02;64.57;101328.53;1770814;81;20169;-72
2022/07/09 00:12:18;;;;;;;;;;;;;;;15.08;64.64;101327.81;1771010;81;21160;-72
2022/07/09 00:14:44;;;;;;;;;;;;;;;15.13;64.72;101329.98;1752394;81;20186;-72
2022/07/09 00:17:10;;;;;;;;;;;;;;;15.17;64.77;101321.37;1770537;81;20199;-72
2022/07/09 00:19:36;;;;;;;;;;;;;;;15.20;64.83;101326.38;1770928;81;20273;-72
2022/07/09 00:22:02;;;;;;;;;;;;;;;15.21;64.90;101324.03;1771041;81;20172;-72
2022/07/09 00:24:28;;;;;;;;;;;;;;;15.23;64.92;101326.05;1770876;81;21976;-72
2022/07/09 00:26:54;;;;;;;;;;;;;;;15.24;65.01;101320.14;1764585;80;20222;-72
2022/07/09 00:29:20;;;;;;;;;;;;;;;15.24;65.06;101319.64;1770690;81;20744;-72
2022/07/09 00:31:45;;;;;;;;;;;;;;;15.25;65.12;101320.48;1770961;81;20183;-72
2022/07/09 00:34:12;;;;;;;;;;;;;;;15.25;65.22;101315.95;1770784;81;20159;-72
2022/07/09 00:36:38;;;;;;;;;;;;;;;15.26;65.28;101310.92;1765023;80;21822;-72
2022/07/09 00:39:04;;;;;;;;;;;;;;;15.26;65.37;101309.57;1765273;81;20494;-72
2022/07/09 00:41:30;;;;;;;;;;;;;;;15.25;65.48;101305.20;1768220;81;20198;-72
2022/07/09 00:43:56;;;;;;;;;;;;;;;15.22;65.58;101307.41;1770875;81;20172;-72
2022/07/09 00:46:21;;;;;;;;;;;;;;;15.17;65.66;101305.75;1764098;80;20226;-72
2022/07/09 00:48:47;;;;;;;;;;;;;;;15.10;65.79;101306.12;1770396;81;21898;-72
2022/07/09 00:51:14;;;;;;;;;;;;;;;15.02;65.90;101309.72;1770631;81;20238;-72
2022/07/09 00:53:40;;;;;;;;;;;;;;;14.96;66.00;101310.41;1770773;81;20197;-72
2022/07/09 00:56:06;;;;;;;;;;;;;;;14.88;66.09;101309.13;1771648;80;20699;-72
2022/07/09 00:58:32;;;;;;;;;;;;;;;14.81;66.21;101314.87;1767219;80;20152;-72
2022/07/09 01:00:58;;;;;;;;;;;;;;;14.74;66.31;101320.61;1776228;80;21168;-72
2022/07/09 01:03:24;;;;;;;;;;;;;;;14.66;66.43;101309.89;1778497;80;20164;-72
2022/07/09 01:05:50;;;;;;;;;;;;;;;14.61;66.56;101310.90;1775608;80;20202;-73
2022/07/09 01:08:16;;;;;;;;;;;;;;;14.56;66.69;101311.45;1773131;80;20163;-72
2022/07/09 01:10:42;;;;;;;;;;;;;;;14.52;66.80;101314.64;1778796;80;20425;-72
2022/07/09 01:13:08;;;;;;;;;;;;;;;14.50;66.90;101316.98;1778417;80;21174;-71
2022/07/09 01:15:34;;;;;;;;;;;;;;;14.48;67.02;101301.56;1777568;80;20246;-71
2022/07/09 01:18:00;;;;;;;;;;;;;;;14.47;67.13;101305.75;1777992;80;20164;-71
2022/07/09 01:20:29;;;;;;;;;;;;;;;14.46;67.21;101303.56;1778565;80;20491;-72
2022/07/09 01:22:56;;;;;;;;;;;;;;;14.44;67.31;101301.58;1778530;80;20203;-72
2022/07/09 01:25:26;;;;;;;;;;;;;;;14.43;67.43;101297.71;1776891;80;21084;-72
2022/07/09 01:27:52;;;;;;;;;;;;;;;14.43;67.54;101293.19;1775812;80;20456;-71
2022/07/09 01:30:25;;;;;;;;;;;;;;;14.44;67.66;101297.55;1771428;80;20186;-72
2022/07/09 01:32:51;;;;;;;;;;;;;;;14.44;67.76;101288.16;1772707;80;20172;-71
2022/07/09 01:35:17;;;;;;;;;;;;;;;14.46;67.90;101288.81;1777858;80;20172;-71
2022/07/09 01:37:42;;;;;;;;;;;;;;;14.47;67.99;101286.47;1778425;80;21323;-71
2022/07/09 01:40:09;;;;;;;;;;;;;;;14.49;68.06;101284.43;1778439;80;20184;-71
2022/07/09 01:42:35;;;;;;;;;;;;;;;14.49;68.16;101278.25;1778214;80;20433;-71
2022/07/09 01:45:01;;;;;;;;;;;;;;;14.48;68.26;101274.73;1772747;80;20171;-71
2022/07/09 01:47:27;;;;;;;;;;;;;;;14.47;68.37;101264.99;1778484;80;20194;-71
2022/07/09 01:49:52;;;;;;;;;;;;;;;14.48;68.46;101272.04;1778422;80;21952;-71
2022/07/09 01:52:18;;;;;;;;;;;;;;;14.47;68.56;101261.47;1776818;80;20219;-71
2022/07/09 01:54:44;;;;;;;;;;;;;;;14.45;68.66;101260.31;1776973;80;20183;-71
2022/07/09 01:57:10;;;;;;;;;;;;;;;14.44;68.80;101266.69;1761002;80;20195;-71
2022/07/09 01:59:36;;;;;;;;;;;;;;;14.43;68.92;101259.64;1766419;81;20172;-71
2022/07/09 02:02:02;;;;;;;;;;;;;;;14.43;69.01;101260.98;1769128;81;21211;-71
2022/07/09 02:04:27;;;;;;;;;;;;;;;14.40;69.14;101261.33;1766525;81;20274;-71
2022/07/09 02:06:53;;;;;;;;;;;;;;;14.38;69.26;101270.08;1763619;81;20200;-71
2022/07/09 02:09:19;;;;;;;;;;;;;;;14.36;69.34;101260.00;1767841;80;20219;-71
2022/07/09 02:11:47;;;;;;;;;;;;;;;14.35;69.46;101269.08;1768985;80;20444;-71
2022/07/09 02:14:12;;;;;;;;;;;;;;;14.33;69.51;101271.05;1766958;81;21868;-71
2022/07/09 02:16:38;;;;;;;;;;;;;;;14.32;69.58;101267.22;1725963;83;20666;-72
2022/07/09 02:19:05;;;;;;;;;;;;;;;14.31;69.63;101263.69;1770898;81;20191;-71
2022/07/09 02:21:32;;;;;;;;;;;;;;;14.31;69.74;101261.51;1725884;83;20191;-72
2022/07/09 02:23:58;;;;;;;;;;;;;;;14.30;69.80;101263.34;1770630;81;20172;-71
2022/07/09 02:26:25;;;;;;;;;;;;;;;14.31;69.85;101260.16;1731961;81;21170;-71
2022/07/09 02:28:52;;;;;;;;;;;;;;;14.31;69.92;101261.01;1771503;80;20156;-71
2022/07/09 02:31:17;;;;;;;;;;;;;;;14.36;69.93;101251.95;1766656;80;20186;-72
2022/07/09 02:33:44;;;;;;;;;;;;;;;14.37;69.99;101261.68;1736875;80;20163;-71
2022/07/09 02:36:09;;;;;;;;;;;;;;;14.38;70.03;101254.47;1756704;81;20148;-71
2022/07/09 02:38:35;;;;;;;;;;;;;;;14.35;70.07;101258.34;1770430;80;21135;-71
2022/07/09 02:41:01;;;;;;;;;;;;;;;14.32;70.12;101258.63;1768451;81;20203;-71
2022/07/09 02:43:27;;;;;;;;;;;;;;;14.31;70.20;101254.30;1765660;80;20218;-71
2022/07/09 02:45:55;;;;;;;;;;;;;;;14.30;70.24;101263.34;1769201;81;20422;-71
2022/07/09 02:48:25;;;;;;;;;;;;;;;14.28;70.25;101260.02;1753731;81;20149;-71
2022/07/09 02:50:51;;;;;;;;;;;;;;;14.27;70.28;101263.70;1774034;80;21300;-71
2022/07/09 02:53:17;;;;;;;;;;;;;;;14.26;70.32;101264.70;1764927;80;20148;-71
2022/07/09 02:55:42;;;;;;;;;;;;;;;14.25;70.37;101263.02;1773985;80;20218;-71
2022/07/09 02:58:10;;;;;;;;;;;;;;;14.26;70.42;101263.36;1762568;81;20476;-72
2022/07/09 03:00:36;;;;;;;;;;;;;;;14.28;70.45;101264.55;1764864;81;20359;-72
2022/07/09 03:03:02;;;;;;;;;;;;;;;14.31;70.50;101263.69;1770338;80;21139;-71
2022/07/09 03:05:28;;;;;;;;;;;;;;;14.34;70.54;101262.03;1770137;80;20262;-71
2022/07/09 03:07:54;;;;;;;;;;;;;;;14.37;70.57;101263.02;1765198;81;20270;-72
2022/07/09 03:10:20;;;;;;;;;;;;;;;14.38;70.58;101256.66;1758556;81;20153;-72
2022/07/09 03:12:46;;;;;;;;;;;;;;;14.41;70.60;101252.28;1769355;81;20291;-72
2022/07/09 03:15:14;;;;;;;;;;;;;;;14.44;70.62;101265.34;1770985;81;21049;-71
2022/07/09 03:17:39;;;;;;;;;;;;;;;14.47;70.66;101255.59;1770719;81;20165;-72
2022/07/09 03:20:06;;;;;;;;;;;;;;;14.52;70.67;101263.64;1770928;81;20207;-72
2022/07/09 03:22:31;;;;;;;;;;;;;;;14.54;70.68;101252.20;1767275;81;20436;-72
2022/07/09 03:24:57;;;;;;;;;;;;;;;14.55;70.67;101244.49;1770513;81;20163;-71
2022/07/09 03:27:23;;;;;;;;;;;;;;;14.56;70.71;101243.49;1770903;81;21078;-72
2022/07/09 03:29:50;;;;;;;;;;;;;;;14.60;70.69;101242.13;1770731;81;20262;-72
2022/07/09 03:32:16;;;;;;;;;;;;;;;14.63;70.69;101245.81;1768636;80;20193;-71
2022/07/09 03:34:42;;;;;;;;;;;;;;;14.66;70.71;101253.00;1768667;81;20161;-71
2022/07/09 03:37:08;;;;;;;;;;;;;;;14.69;70.73;101249.12;1771127;81;20310;-72
2022/07/09 03:39:34;;;;;;;;;;;;;;;14.73;70.75;101246.42;1770869;80;21076;-72
2022/07/09 03:42:00;;;;;;;;;;;;;;;14.77;70.71;101242.38;1765579;80;20222;-72
2022/07/09 03:44:26;;;;;;;;;;;;;;;14.77;70.71;101239.19;1770919;81;20679;-72
2022/07/09 03:46:52;;;;;;;;;;;;;;;14.77;70.73;101238.34;1770620;80;20871;-72
2022/07/09 03:49:18;;;;;;;;;;;;;;;14.75;70.76;101240.36;1771027;81;20211;-72
2022/07/09 03:51:44;;;;;;;;;;;;;;;14.71;70.79;101236.34;1770013;81;21169;-72
2022/07/09 03:54:10;;;;;;;;;;;;;;;14.69;70.85;101239.72;1770625;81;20133;-71
2022/07/09 03:56:36;;;;;;;;;;;;;;;14.72;70.89;101248.77;1770472;80;20164;-72
2022/07/09 03:59:02;;;;;;;;;;;;;;;14.74;70.93;101247.57;1764714;81;20215;-72
2022/07/09 04:01:28;;;;;;;;;;;;;;;14.78;70.94;101254.77;1769257;81;20192;-72
2022/07/09 04:03:54;;;;;;;;;;;;;;;14.77;70.93;101250.43;1771035;81;21183;-71
2022/07/09 04:06:20;;;;;;;;;;;;;;;14.75;70.94;101247.07;1771115;81;20912;-72
2022/07/09 04:08:46;;;;;;;;;;;;;;;14.74;70.98;101249.45;1770824;81;20609;-72
2022/07/09 04:11:12;;;;;;;;;;;;;;;14.75;70.97;101244.38;1765439;80;20481;-72
2022/07/09 04:13:38;;;;;;;;;;;;;;;14.70;70.95;101250.80;1770700;81;20172;-72
2022/07/09 04:16:04;;;;;;;;;;;;;;;14.67;71.03;101249.28;1771016;81;21098;-72
2022/07/09 04:18:30;;;;;;;;;;;;;;;14.67;71.09;101251.97;1770927;81;20196;-71
2022/07/09 04:20:57;;;;;;;;;;;;;;;14.67;71.09;101255.19;1766501;81;20242;-72
2022/07/09 04:23:23;;;;;;;;;;;;;;;14.64;71.15;101251.48;1770910;80;20503;-72
2022/07/09 04:25:50;;;;;;;;;;;;;;;14.61;71.21;101251.84;1770980;81;20177;-72
2022/07/09 04:28:18;;;;;;;;;;;;;;;14.61;71.28;101253.18;1770768;81;21941;-71
2022/07/09 04:30:45;;;;;;;;;;;;;;;14.60;71.32;101256.90;1766480;81;20456;-72
2022/07/09 04:33:10;;;;;;;;;;;;;;;14.58;71.36;101257.06;1769280;81;20496;-72
2022/07/09 04:35:36;;;;;;;;;;;;;;;14.59;71.43;101256.06;1770847;81;20226;-71
2022/07/09 04:38:03;;;;;;;;;;;;;;;14.60;71.46;101266.30;1749374;81;20206;-71
2022/07/09 04:40:28;;;;;;;;;;;;;;;14.58;71.51;101265.61;1763661;81;21420;-72
2022/07/09 04:42:54;;;;;;;;;;;;;;;14.58;71.56;101263.77;1770856;81;20242;-72
2022/07/09 04:45:20;;;;;;;;;;;;;;;14.63;71.57;101261.91;1770824;81;20278;-72
2022/07/09 04:47:46;;;;;;;;;;;;;;;14.66;71.58;101261.56;1764858;81;20160;-72
2022/07/09 04:50:12;;;;;;;;;;;;;;;14.68;71.61;101259.52;1769563;81;20333;-72
2022/07/09 04:52:38;;;;;;;;;;;;;;;14.77;71.62;101254.46;1770972;81;22022;-72
2022/07/09 04:55:05;;;;;;;;;;;;;;;14.83;71.64;101253.75;1770523;81;20129;-72
2022/07/09 04:57:30;;;;;;;;;;;;;;;14.91;71.68;101256.39;1769671;80;20180;-72
2022/07/09 05:00:00;;;;;;;;;;;;;;;15.15;71.70;101252.20;1771812;80;20480;-72
2022/07/09 05:02:26;;;;;;;;;;;;;;;15.39;71.70;101253.86;1766780;80;20182;-72
2022/07/09 05:04:51;;;;;;;;;;;;;;;15.64;71.60;101257.22;1766624;80;21119;-72
2022/07/09 05:07:17;;;;;;;;;;;;;;;15.81;71.52;101249.32;1775302;80;20226;-72
2022/07/09 05:09:43;;;;;;;;;;;;;;;16.10;71.42;101249.36;1761370;80;20185;-72
2022/07/09 05:12:10;;;;;;;;;;;;;;;16.08;71.30;101254.07;1762903;80;20170;-72
2022/07/09 05:14:37;;;;;;;;;;;;;;;15.98;71.21;101255.70;1776472;80;20188;-72
2022/07/09 05:17:03;;;;;;;;;;;;;;;15.87;71.13;101256.65;1776829;80;21072;-72
2022/07/09 05:19:29;;;;;;;;;;;;;;;15.83;71.08;101259.41;1777679;80;20160;-72
2022/07/09 05:21:55;;;;;;;;;;;;;;;15.92;71.01;101258.30;1776772;80;20226;-72
2022/07/09 05:24:21;;;;;;;;;;;;;;;15.99;70.89;101247.13;1766541;80;20167;-72
2022/07/09 05:26:47;;;;;;;;;;;;;;;16.09;70.76;101252.22;1776687;80;20179;-72
2022/07/09 05:29:12;;;;;;;;;;;;;;;16.38;70.67;101253.07;1766003;80;21871;-72
2022/07/09 05:31:38;;;;;;;;;;;;;;;16.59;70.57;101246.95;1776066;80;20234;-72
2022/07/09 05:34:05;;;;;;;;;;;;;;;16.66;70.40;101244.33;1772193;80;20210;-72
2022/07/09 05:36:31;;;;;;;;;;;;;;;16.61;70.23;101251.63;1773063;80;20159;-72
2022/07/09 05:38:57;;;;;;;;;;;;;;;16.58;70.12;101241.73;1762707;80;20156;-72
2022/07/09 05:41:24;;;;;;;;;;;;;;;16.56;70.01;101239.76;1769310;80;21052;-72
2022/07/09 05:43:51;;;;;;;;;;;;;;;16.56;69.94;101239.76;1774385;80;20160;-72
2022/07/09 05:46:18;;;;;;;;;;;;;;;16.88;69.87;101240.66;1772647;80;20173;-72
2022/07/09 05:48:44;;;;;;;;;;;;;;;17.11;69.69;101235.09;1770673;80;20175;-72
2022/07/09 05:51:09;;;;;;;;;;;;;;;17.32;69.52;101235.92;1785787;79;20246;-72
2022/07/09 05:53:35;;;;;;;;;;;;;;;17.39;69.35;101235.47;1765801;80;21199;-72
2022/07/09 05:56:01;;;;;;;;;;;;;;;17.62;69.15;101235.81;1773924;80;20580;-73
2022/07/09 05:58:27;;;;;;;;;;;;;;;17.75;68.96;101227.81;1768596;80;20215;-72
2022/07/09 06:00:53;;;;;;;;;;;;;;;17.73;68.73;101230.69;1764835;81;20719;-73
2022/07/09 06:03:18;;;;;;;;;;;;;;;17.87;68.56;101226.25;1766631;80;20716;-72
2022/07/09 06:05:44;;;;;;;;;;;;;;;18.02;68.30;101232.35;1752852;80;21151;-73
2022/07/09 06:08:10;;;;;;;;;;;;;;;18.29;68.14;101232.84;1748841;80;20199;-72
2022/07/09 06:10:36;;;;;;;;;;;;;;;18.84;67.85;101218.33;1766949;80;20639;-72
2022/07/09 06:13:02;;;;;;;;;;;;;;;19.39;67.57;101217.67;1746600;81;20210;-72
2022/07/09 06:15:28;;;;;;;;;;;;;;;19.28;67.14;101221.83;1770642;81;20149;-72
2022/07/09 06:17:54;;;;;;;;;;;;;;;19.13;66.84;101215.80;1738323;80;21092;-72
2022/07/09 06:20:20;;;;;;;;;;;;;;;19.07;66.54;101213.09;1740727;81;20347;-72
2022/07/09 06:22:46;;;;;;;;;;;;;;;19.08;66.30;101212.87;1757576;81;20217;-72
2022/07/09 06:25:12;;;;;;;;;;;;;;;19.37;66.08;101208.44;1757551;81;20184;-72
2022/07/09 06:27:40;;;;;;;;;;;;;;;19.55;65.77;101205.66;1754522;81;20160;-72
2022/07/09 06:30:07;;;;;;;;;;;;;;;19.44;65.50;101212.01;1751432;81;21051;-72
2022/07/09 06:32:32;;;;;;;;;;;;;;;19.22;65.17;101211.84;1749864;80;20161;-72
2022/07/09 06:34:58;;;;;;;;;;;;;;;19.31;64.96;101206.57;1736268;81;20327;-72
2022/07/09 06:37:24;;;;;;;;;;;;;;;19.65;64.75;101206.06;1757769;81;20170;-72
2022/07/09 06:39:51;;;;;;;;;;;;;;;19.89;64.41;101208.11;1757680;81;20205;-72
2022/07/09 06:42:18;;;;;;;;;;;;;;;19.55;63.98;101207.01;1753395;80;21039;-72
2022/07/09 06:44:44;;;;;;;;;;;;;;;19.17;63.78;101206.24;1764427;81;20149;-72
2022/07/09 06:47:10;;;;;;;;;;;;;;;19.28;63.78;101205.60;1770554;80;20203;-72
2022/07/09 06:49:36;;;;;;;;;;;;;;;19.05;63.51;101202.47;1750251;80;20158;-71
2022/07/09 06:52:02;;;;;;;;;;;;;;;18.87;63.33;101195.45;1769733;80;20297;-72
2022/07/09 06:54:28;;;;;;;;;;;;;;;18.55;63.08;101212.40;1766300;80;21031;-72
2022/07/09 06:56:56;;;;;;;;;;;;;;;18.37;63.05;101221.85;1760798;81;20143;-72
2022/07/09 06:59:23;;;;;;;;;;;;;;;18.82;63.18;101204.72;1763967;80;20153;-72
2022/07/09 07:01:49;;;;;;;;;;;;;;;19.37;62.93;101204.38;1769831;80;20351;-71
2022/07/09 07:04:14;;;;;;;;;;;;;;;19.48;62.65;101199.41;1758064;80;20152;-72
2022/07/09 07:06:45;;;;;;;;;;;;;;;19.61;62.54;101202.94;1762933;80;22002;-72
2022/07/09 07:09:11;;;;;;;;;;;;;;;20.20;62.32;101197.41;1756762;81;20163;-72
2022/07/09 07:11:37;;;;;;;;;;;;;;;20.61;61.82;101197.59;1768944;81;20168;-72
2022/07/09 07:14:03;;;;;;;;;;;;;;;20.55;61.07;101187.62;1767989;80;20152;-72
2022/07/09 07:16:29;;;;;;;;;;;;;;;20.31;60.75;101191.88;1752406;81;20205;-72
2022/07/09 07:18:54;;;;;;;;;;;;;;;20.03;60.45;101186.73;1768318;81;21161;-72
2022/07/09 07:21:20;;;;;;;;;;;;;;;19.59;60.23;101185.26;1766182;80;20849;-72
2022/07/09 07:23:46;;;;;;;;;;;;;;;19.17;60.18;101191.37;1766796;81;20242;-72
2022/07/09 07:26:11;;;;;;;;;;;;;;;18.83;60.12;101186.09;1763687;81;20251;-72
2022/07/09 07:28:37;;;;;;;;;;;;;;;18.98;60.36;101181.34;1770497;80;20254;-72
2022/07/09 07:31:03;;;;;;;;;;;;;;;19.57;60.33;101181.91;1767617;81;21957;-72
2022/07/09 07:33:29;;;;;;;;;;;;;;;19.64;60.12;101188.15;1770558;81;20157;-72
2022/07/09 07:35:55;;;;;;;;;;;;;;;20.04;60.11;101182.98;1770044;81;20262;-73
2022/07/09 07:38:21;;;;;;;;;;;;;;;20.38;59.60;101185.39;1777772;80;20230;-72
2022/07/09 07:40:46;;;;;;;;;;;;;;;20.33;59.31;101196.58;1768756;81;20159;-72
2022/07/09 07:43:12;;;;;;;;;;;;;;;19.85;58.87;101197.39;1765728;81;20997;-72
2022/07/09 07:45:38;;;;;;;;;;;;;;;19.46;58.75;101190.69;1768992;81;20176;-72
2022/07/09 07:48:05;;;;;;;;;;;;;;;19.42;58.83;101193.78;1766628;80;20215;-72
2022/07/09 07:50:32;;;;;;;;;;;;;;;19.47;58.48;101189.63;1770834;81;20157;-72
2022/07/09 07:52:58;;;;;;;;;;;;;;;19.77;58.43;101194.92;1770873;81;20200;-73
2022/07/09 07:55:24;;;;;;;;;;;;;;;19.99;58.26;101190.06;1764416;80;21178;-72
2022/07/09 07:57:50;;;;;;;;;;;;;;;20.37;58.20;101187.78;1747142;81;20234;-73
2022/07/09 08:00:16;;;;;;;;;;;;;;;20.90;58.02;101186.16;1769895;80;20258;-72
2022/07/09 08:02:42;;;;;;;;;;;;;;;20.74;57.30;101182.61;1765268;80;20169;-73
2022/07/09 08:05:08;;;;;;;;;;;;;;;20.27;57.11;101179.77;1758381;81;20254;-72
2022/07/09 08:07:34;;;;;;;;;;;;;;;20.32;57.00;101172.71;1771527;81;21697;-73
2022/07/09 08:10:00;;;;;;;;;;;;;;;20.55;56.83;101175.44;1763271;80;20186;-72
2022/07/09 08:12:26;;;;;;;;;;;;;;;20.79;56.64;101172.77;1765181;81;20837;-72
2022/07/09 08:14:51;;;;;;;;;;;;;;;20.39;55.96;101179.45;1768035;80;20234;-72
2022/07/09 08:17:17;;;;;;;;;;;;;;;20.17;55.80;101190.23;1763087;81;20166;-73
2022/07/09 08:19:43;;;;;;;;;;;;;;;20.43;55.58;101181.53;1769960;80;21163;-72
2022/07/09 08:22:09;;;;;;;;;;;;;;;20.47;55.05;101189.22;1770061;81;20729;-73
2022/07/09 08:24:35;;;;;;;;;;;;;;;20.41;54.97;101182.77;1771998;80;20171;-72
2022/07/09 08:27:01;;;;;;;;;;;;;;;20.15;54.56;101187.75;1774040;80;20243;-72
2022/07/09 08:29:27;;;;;;;;;;;;;;;19.86;54.39;101181.46;1773033;80;20222;-73
2022/07/09 08:31:52;;;;;;;;;;;;;;;20.25;54.36;101183.23;1769549;80;21112;-73
2022/07/09 08:34:18;;;;;;;;;;;;;;;20.67;54.11;101170.97;1764681;81;20199;-72
2022/07/09 08:36:44;;;;;;;;;;;;;;;20.99;53.87;101179.44;1768004;80;20171;-73
2022/07/09 08:39:10;;;;;;;;;;;;;;;21.28;53.28;101182.08;1767506;80;20200;-73
2022/07/09 08:41:36;;;;;;;;;;;;;;;21.29;52.79;101176.41;1766148;80;20140;-73
2022/07/09 08:44:03;;;;;;;;;;;;;;;21.36;52.48;101173.64;1770115;80;21323;-73
2022/07/09 08:46:29;;;;;;;;;;;;;;;21.59;52.25;101171.16;1766823;80;20152;-73
2022/07/09 08:48:55;;;;;;;;;;;;;;;21.83;52.10;101164.86;1744889;81;20754;-73
2022/07/09 08:51:21;;;;;;;;;;;;;;;22.00;51.69;101169.19;1763731;81;20249;-73
2022/07/09 08:53:47;;;;;;;;;;;;;;;22.15;51.38;101168.30;1756351;80;20167;-73
2022/07/09 08:56:13;;;;;;;;;;;;;;;22.13;50.96;101158.16;1773098;80;21609;-73
2022/07/09 08:58:39;;;;;;;;;;;;;;;22.00;50.62;101161.03;1764983;80;20648;-73
2022/07/09 09:01:06;;;;;;;;;;;;;;;22.05;50.12;101176.15;1771770;81;20206;-72
2022/07/09 09:03:32;;;;;;;;;;;;;;;22.01;49.71;101167.30;1764458;80;20189;-73
2022/07/09 09:06:08;;;;;;;;;;;;;;;22.04;49.50;101157.34;1764935;81;20199;-73
2022/07/09 09:08:38;;;;;;;;;;;;;;;22.11;49.46;101159.45;1773573;81;21736;-73
2022/07/09 09:11:05;;;;;;;;;;;;;;;22.23;49.20;101140.82;1773536;81;20495;-73
2022/07/09 09:13:32;;;;;;;;;;;;;;;22.11;48.96;101150.78;1772879;80;20160;-73
2022/07/09 09:16:03;;;;;;;;;;;;;;;22.10;48.81;101146.39;1735015;81;20212;-73
2022/07/09 09:18:29;;;;;;;;;;;;;;;22.23;48.70;101139.98;1768745;81;20199;-73
2022/07/09 09:20:54;;;;;;;;;;;;;;;21.92;48.26;101146.39;1754715;80;22280;-73
2022/07/09 09:23:20;;;;;;;;;;;;;;;21.88;48.34;101142.46;1768603;81;20223;-72
2022/07/09 09:25:46;;;;;;;;;;;;;;;21.95;48.08;101136.98;1760119;81;20271;-73
2022/07/09 09:28:16;;;;;;;;;;;;;;;22.03;47.81;101140.20;1776805;80;20185;-73
2022/07/09 09:30:43;;;;;;;;;;;;;;;22.03;47.48;101132.05;1762781;81;20140;-72
2022/07/09 09:33:09;;;;;;;;;;;;;;;22.13;47.41;101139.14;1754625;81;20952;-73
2022/07/09 09:35:35;;;;;;;;;;;;;;;22.36;47.34;101134.38;1757109;81;20189;-73
2022/07/09 09:38:01;;;;;;;;;;;;;;;22.38;47.03;101138.52;1757015;81;20190;-72
2022/07/09 09:40:27;;;;;;;;;;;;;;;22.13;46.63;101136.98;1763977;81;20234;-72
2022/07/09 09:42:53;;;;;;;;;;;;;;;21.82;46.52;101136.02;1769385;80;20227;-72
2022/07/09 09:45:18;;;;;;;;;;;;;;;21.73;46.60;101129.25;1759993;81;21462;-73
2022/07/09 09:47:49;;;;;;;;;;;;;;;21.64;46.63;101140.62;1766150;81;20186;-72
2022/07/09 09:50:19;;;;;;;;;;;;;;;21.92;46.79;101135.52;1766893;80;20419;-72
2022/07/09 09:52:47;;;;;;;;;;;;;;;22.24;46.63;101129.39;1755574;81;20168;-73
2022/07/09 09:55:13;;;;;;;;;;;;;;;21.99;46.04;101136.28;1750373;80;20183;-72
2022/07/09 09:57:39;;;;;;;;;;;;;;;21.61;46.07;101138.34;1764766;80;21372;-72
2022/07/09 10:00:06;;;;;;;;;;;;;;;21.46;46.19;101134.64;1770688;81;20202;-72
2022/07/09 10:02:35;;;;;;;;;;;;;;;21.37;46.28;101134.08;1767870;81;20235;-73
2022/07/09 10:05:01;;;;;;;;;;;;;;;21.26;46.31;101127.19;1740891;81;20220;-72
2022/07/09 10:07:27;;;;;;;;;;;;;;;21.38;46.44;101125.42;1754584;81;20163;-72
2022/07/09 10:09:58;;;;;;;;;;;;;;;21.43;46.53;101130.19;1769926;81;21217;-72
2022/07/09 10:12:32;;;;;;;;;;;;;;;21.33;46.51;101126.08;1763441;81;20161;-72
2022/07/09 10:14:58;;;;;;;;;;;;;;;21.46;46.62;101131.93;1709070;81;20131;-72
2022/07/09 10:17:24;;;;;;;;;;;;;;;21.46;46.62;101135.17;1767003;80;20188;-72
2022/07/09 10:19:58;;;;;;;;;;;;;;;21.40;46.66;101133.63;1766196;81;20176;-73
2022/07/09 10:22:43;;;;;;;;;;;;;;;21.43;46.68;101127.47;1767483;80;21165;-73
2022/07/09 10:25:15;;;;;;;;;;;;;;;21.36;46.60;101139.20;1750675;81;20177;-72
2022/07/09 10:27:42;;;;;;;;;;;;;;;21.30;46.63;101129.23;1769694;80;20157;-72
2022/07/09 10:30:10;;;;;;;;;;;;;;;21.34;46.77;101126.91;1761110;81;20209;-72
2022/07/09 10:32:42;;;;;;;;;;;;;;;21.31;46.73;101126.84;1742203;81;20189;-72
2022/07/09 10:35:04;;;;;;;;;;;;;;;21.18;46.80;101121.50;1769494;80;21014;-72
2022/07/09 10:37:40;;;;;;;;;;;;;;;21.02;46.82;101123.39;1770415;81;20228;-72
2022/07/09 10:40:15;;;;;;;;;;;;;;;20.92;46.84;101123.05;1770183;80;20165;-72
2022/07/09 10:42:42;;;;;;;;;;;;;;;20.79;46.86;101120.45;1760338;81;20188;-72
2022/07/09 10:45:26;;;;;;;;;;;;;;;20.67;46.94;101123.53;1751614;80;20188;-72
2022/07/09 10:47:59;;;;;;;;;;;;;;;20.69;47.16;101126.33;1763008;80;21124;-72
2022/07/09 10:50:29;;;;;;;;;;;;;;;20.83;47.33;101125.19;1764408;81;20153;-72
2022/07/09 10:52:56;;;;;;;;;;;;;;;20.85;47.36;101124.98;1770678;81;20405;-72
2022/07/09 10:55:25;;;;;;;;;;;;;;;20.97;47.60;101126.47;1767551;81;20575;-72
2022/07/09 10:57:51;;;;;;;;;;;;;;;20.98;47.60;101125.40;1765288;80;20172;-72
2022/07/09 11:00:28;;;;;;;;;;;;;;;20.91;47.63;101129.52;1762516;80;21072;-72
2022/07/09 11:02:58;;;;;;;;;;;;;;;20.94;47.74;101135.86;1777595;80;20222;-72
2022/07/09 11:05:25;;;;;;;;;;;;;;;21.01;47.73;101132.57;1771053;80;20157;-72
2022/07/09 11:08:04;;;;;;;;;;;;;;;20.90;47.69;101126.50;1770311;79;20159;-72
2022/07/09 11:10:30;;;;;;;;;;;;;;;20.83;47.76;101130.61;1783447;79;20188;-72
2022/07/09 11:12:59;;;;;;;;;;;;;;;20.72;47.90;101128.59;1772329;80;20987;-72
2022/07/09 11:15:27;;;;;;;;;;;;;;;20.56;48.00;101140.48;1763896;80;20156;-73
2022/07/09 11:18:07;;;;;;;;;;;;;;;20.24;48.12;101134.98;1771127;80;20163;-72
2022/07/09 11:20:44;;;;;;;;;;;;;;;20.14;48.35;101137.33;1765724;80;20140;-72
2022/07/09 11:23:14;;;;;;;;;;;;;;;20.14;48.68;101135.97;1774227;79;20157;-73
2022/07/09 11:25:40;;;;;;;;;;;;;;;20.54;48.91;101123.62;1778542;80;21372;-72
2022/07/09 11:28:06;;;;;;;;;;;;;;;20.87;48.97;101131.00;1771638;80;20191;-73
2022/07/09 11:30:33;;;;;;;;;;;;;;;21.09;48.98;101136.38;1769165;80;20443;-72
2022/07/09 11:32:59;;;;;;;;;;;;;;;21.11;48.98;101135.65;1771682;79;20206;-72
2022/07/09 11:35:33;;;;;;;;;;;;;;;21.17;49.09;101132.08;1766653;80;20341;-72
2022/07/09 11:38:03;;;;;;;;;;;;;;;21.36;48.99;101135.13;1776486;80;21136;-72
2022/07/09 11:40:30;;;;;;;;;;;;;;;21.24;48.99;101132.84;1777226;80;20200;-72
2022/07/09 11:42:57;;;;;;;;;;;;;;;21.06;48.99;101134.11;1770433;79;20473;-72
2022/07/09 11:45:24;;;;;;;;;;;;;;;20.95;49.10;101136.17;1774525;80;20164;-72
2022/07/09 11:47:50;;;;;;;;;;;;;;;20.85;49.14;101135.83;1777360;80;20152;-72
2022/07/09 11:50:20;;;;;;;;;;;;;;;20.55;49.09;101136.94;1768261;80;21168;-72
2022/07/09 11:52:49;;;;;;;;;;;;;;;20.49;49.27;101141.87;1735090;82;20184;-72
2022/07/09 11:55:17;;;;;;;;;;;;;;;20.68;49.36;101137.41;1696616;84;20503;-72
2022/07/09 11:57:56;;;;;;;;;;;;;;;20.72;49.33;101146.77;1726824;81;20167;-72
2022/07/09 12:00:27;;;;;;;;;;;;;;;20.68;49.27;101144.18;1726772;82;20184;-72
2022/07/09 12:02:53;;;;;;;;;;;;;;;20.71;49.33;101138.32;1749485;81;22046;-72
2022/07/09 12:05:31;;;;;;;;;;;;;;;20.78;49.34;101132.33;1748596;81;20300;-72
2022/07/09 12:08:00;;;;;;;;;;;;;;;20.74;49.26;101129.75;1749087;80;20157;-72
2022/07/09 12:10:28;;;;;;;;;;;;;;;20.75;49.26;101128.70;1749163;80;20129;-72
2022/07/09 12:12:54;;;;;;;;;;;;;;;20.88;49.31;101119.12;1748166;81;20149;-72
2022/07/09 12:15:20;;;;;;;;;;;;;;;21.10;49.28;101113.67;1749091;82;20653;-72
2022/07/09 12:17:48;;;;;;;;;;;;;;;21.20;49.26;101118.06;1747982;80;20237;-72
2022/07/09 12:20:14;;;;;;;;;;;;;;;21.18;49.11;101113.36;1715467;82;20190;-72
2022/07/09 12:22:40;;;;;;;;;;;;;;;21.12;49.06;101112.07;1748538;82;20159;-72
2022/07/09 12:25:06;;;;;;;;;;;;;;;21.10;49.07;101112.80;1748155;80;20168;-72
2022/07/09 12:27:32;;;;;;;;;;;;;;;21.03;49.00;101108.79;1749154;82;21306;-72
2022/07/09 12:29:58;;;;;;;;;;;;;;;20.95;49.02;101100.91;1749312;82;20262;-72
2022/07/09 12:32:24;;;;;;;;;;;;;;;20.82;49.04;101097.79;1749255;80;20750;-72